sensor_id;sensor_type;location;lat;lon;timestamp;pressure;altitude;pressure_sealevel;temperature;humidity
58385;BME280;44185;47.844;8.966;2023-07-29T00:00:42;95876.00;;;15.28;100.00
58385;BME280;44185;47.844;8.966;2023-07-29T00:03:07;95881.50;;;15.26;100.00
58385;BME280;44185;47.844;8.966;2023-07-29T00:05:34;95872.84;;;15.24;100.00
58385;BME280;44185;47.844;8.966;2023-07-29T00:07:59;95870.19;;;15.24;100.00
58385;BME280;44185;47.844;8.966;2023-07-29T00:10:25;95867.69;;;15.31;100.00
58385;BME280;44185;47.844;8.966;2023-07-29T00:12:50;95856.63;;;15.42;100.00
58385;BME280;44185;47.844;8.966;2023-07-29T00:15:16;95851.25;;;15.51;100.00
58385;BME280;44185;47.844;8.966;2023-07-29T00:17:41;95867.78;;;15.46;100.00
58385;BME280;44185;47.844;8.966;2023-07-29T00:20:07;95852.78;;;15.45;100.00
58385;BME280;44185;47.844;8.966;2023-07-29T00:22:34;95854.31;;;15.39;100.00
58385;BME280;44185;47.844;8.966;2023-07-29T00:24:59;95851.47;;;15.41;100.00
58385;BME280;44185;47.844;8.966;2023-07-29T00:27:25;95842.50;;;15.33;100.00
58385;BME280;44185;47.844;8.966;2023-07-29T00:29:51;95845.00;;;15.35;100.00
58385;BME280;44185;47.844;8.966;2023-07-29T00:32:17;95844.34;;;15.33;100.00
58385;BME280;44185;47.844;8.966;2023-07-29T00:34:43;95844.50;;;15.31;100.00
58385;BME280;44185;47.844;8.966;2023-07-29T00:37:09;95843.69;;;15.31;100.00
58385;BME280;44185;47.844;8.966;2023-07-29T00:39:35;95843.50;;;15.32;100.00
58385;BME280;44185;47.844;8.966;2023-07-29T00:42:01;95837.66;;;15.29;100.00
58385;BME280;44185;47.844;8.966;2023-07-29T00:44:26;95831.91;;;15.17;100.00
58385;BME280;44185;47.844;8.966;2023-07-29T00:46:52;95843.06;;;15.12;100.00
58385;BME280;44185;47.844;8.966;2023-07-29T00:49:18;95840.88;;;15.16;100.00
58385;BME280;44185;47.844;8.966;2023-07-29T00:51:44;95845.22;;;15.17;100.00
58385;BME280;44185;47.844;8.966;2023-07-29T00:54:09;95839.88;;;15.17;100.00
58385;BME280;44185;47.844;8.966;2023-07-29T00:56:36;95839.44;;;15.05;100.00
58385;BME280;44185;47.844;8.966;2023-07-29T00:59:03;95853.94;;;15.02;100.00
58385;BME280;44185;47.844;8.966;2023-07-29T01:01:28;95852.56;;;15.06;100.00
58385;BME280;44185;47.844;8.966;2023-07-29T01:03:54;95839.25;;;15.06;100.00
58385;BME280;44185;47.844;8.966;2023-07-29T01:06:26;95831.41;;;15.13;100.00
58385;BME280;44185;47.844;8.966;2023-07-29T01:09:01;95828.94;;;15.03;100.00
58385;BME280;44185;47.844;8.966;2023-07-29T01:11:35;95828.63;;;14.98;100.00
58385;BME280;44185;47.844;8.966;2023-07-29T01:14:10;95827.78;;;14.97;100.00
58385;BME280;44185;47.844;8.966;2023-07-29T01:16:42;95827.63;;;14.99;100.00
58385;BME280;44185;47.844;8.966;2023-07-29T01:19:26;95823.78;;;15.01;100.00
58385;BME280;44185;47.844;8.966;2023-07-29T01:21:59;95817.63;;;14.93;100.00
58385;BME280;44185;47.844;8.966;2023-07-29T01:24:26;95824.63;;;14.85;100.00
58385;BME280;44185;47.844;8.966;2023-07-29T01:26:52;95817.81;;;14.83;100.00
58385;BME280;44185;47.844;8.966;2023-07-29T01:29:17;95820.28;;;14.84;100.00
58385;BME280;44185;47.844;8.966;2023-07-29T01:31:44;95824.78;;;14.92;100.00
58385;BME280;44185;47.844;8.966;2023-07-29T01:34:17;95821.63;;;14.97;100.00
58385;BME280;44185;47.844;8.966;2023-07-29T01:36:45;95819.97;;;14.96;100.00
58385;BME280;44185;47.844;8.966;2023-07-29T01:39:12;95817.13;;;14.97;100.00
58385;BME280;44185;47.844;8.966;2023-07-29T01:41:39;95825.44;;;15.03;100.00
58385;BME280;44185;47.844;8.966;2023-07-29T01:44:06;95827.78;;;14.97;100.00
58385;BME280;44185;47.844;8.966;2023-07-29T01:46:34;95811.97;;;14.96;100.00
58385;BME280;44185;47.844;8.966;2023-07-29T01:48:59;95808.63;;;15.02;100.00
58385;BME280;44185;47.844;8.966;2023-07-29T01:51:24;95801.97;;;14.98;100.00
58385;BME280;44185;47.844;8.966;2023-07-29T01:53:50;95808.63;;;14.85;100.00
58385;BME280;44185;47.844;8.966;2023-07-29T01:56:15;95804.63;;;14.81;100.00
58385;BME280;44185;47.844;8.966;2023-07-29T01:58:42;95812.81;;;14.79;100.00
58385;BME280;44185;47.844;8.966;2023-07-29T02:01:08;95808.84;;;14.75;100.00
58385;BME280;44185;47.844;8.966;2023-07-29T02:03:33;95806.97;;;14.76;100.00
58385;BME280;44185;47.844;8.966;2023-07-29T02:05:58;95808.00;;;14.75;100.00
58385;BME280;44185;47.844;8.966;2023-07-29T02:08:24;95800.97;;;14.82;100.00
58385;BME280;44185;47.844;8.966;2023-07-29T02:10:49;95792.50;;;14.78;100.00
58385;BME280;44185;47.844;8.966;2023-07-29T02:13:15;95797.88;;;14.62;100.00
58385;BME280;44185;47.844;8.966;2023-07-29T02:15:42;95791.72;;;14.53;100.00
58385;BME280;44185;47.844;8.966;2023-07-29T02:18:08;95797.88;;;14.62;100.00
58385;BME280;44185;47.844;8.966;2023-07-29T02:20:33;95797.03;;;14.70;100.00
58385;BME280;44185;47.844;8.966;2023-07-29T02:22:59;95788.38;;;14.59;100.00
58385;BME280;44185;47.844;8.966;2023-07-29T02:25:24;95789.22;;;14.60;100.00
58385;BME280;44185;47.844;8.966;2023-07-29T02:27:49;95781.22;;;14.60;100.00
58385;BME280;44185;47.844;8.966;2023-07-29T02:30:15;95780.88;;;14.54;100.00
58385;BME280;44185;47.844;8.966;2023-07-29T02:32:42;95797.38;;;14.50;100.00
58385;BME280;44185;47.844;8.966;2023-07-29T02:35:08;95802.03;;;14.48;100.00
58385;BME280;44185;47.844;8.966;2023-07-29T02:37:33;95798.19;;;14.50;100.00
58385;BME280;44185;47.844;8.966;2023-07-29T02:39:59;95803.19;;;14.62;100.00
58385;BME280;44185;47.844;8.966;2023-07-29T02:42:24;95799.69;;;14.61;100.00
58385;BME280;44185;47.844;8.966;2023-07-29T02:44:50;95799.19;;;14.57;100.00
58385;BME280;44185;47.844;8.966;2023-07-29T02:47:15;95796.84;;;14.63;100.00
58385;BME280;44185;47.844;8.966;2023-07-29T02:49:42;95804.81;;;14.71;100.00
58385;BME280;44185;47.844;8.966;2023-07-29T02:52:07;95802.16;;;14.71;100.00
58385;BME280;44185;47.844;8.966;2023-07-29T02:54:33;95797.34;;;14.66;100.00
58385;BME280;44185;47.844;8.966;2023-07-29T02:56:58;95798.00;;;14.68;100.00
58385;BME280;44185;47.844;8.966;2023-07-29T02:59:24;95787.03;;;14.72;100.00
58385;BME280;44185;47.844;8.966;2023-07-29T03:01:49;95791.69;;;14.78;100.00
58385;BME280;44185;47.844;8.966;2023-07-29T03:04:15;95789.81;;;14.78;100.00
58385;BME280;44185;47.844;8.966;2023-07-29T03:06:41;95777.19;;;14.89;100.00
58385;BME280;44185;47.844;8.966;2023-07-29T03:09:07;95778.00;;;14.89;100.00
58385;BME280;44185;47.844;8.966;2023-07-29T03:11:32;95777.66;;;14.84;100.00
58385;BME280;44185;47.844;8.966;2023-07-29T03:13:58;95784.00;;;14.83;100.00
58385;BME280;44185;47.844;8.966;2023-07-29T03:16:23;95778.69;;;14.83;100.00
58385;BME280;44185;47.844;8.966;2023-07-29T03:18:49;95782.66;;;14.79;100.00
58385;BME280;44185;47.844;8.966;2023-07-29T03:21:14;95778.69;;;14.83;100.00
58385;BME280;44185;47.844;8.966;2023-07-29T03:23:41;95782.84;;;14.77;100.00
58385;BME280;44185;47.844;8.966;2023-07-29T03:26:07;95788.84;;;14.79;100.00
58385;BME280;44185;47.844;8.966;2023-07-29T03:28:33;95785.34;;;14.87;100.00
58385;BME280;44185;47.844;8.966;2023-07-29T03:30:58;95782.84;;;14.86;100.00
58385;BME280;44185;47.844;8.966;2023-07-29T03:33:25;95782.00;;;14.85;100.00
58385;BME280;44185;47.844;8.966;2023-07-29T03:35:50;95786.50;;;14.85;100.00
58385;BME280;44185;47.844;8.966;2023-07-29T03:38:16;95785.19;;;14.81;100.00
58385;BME280;44185;47.844;8.966;2023-07-29T03:40:43;95799.31;;;14.89;100.00
58385;BME280;44185;47.844;8.966;2023-07-29T03:43:09;95820.63;;;14.98;100.00
58385;BME280;44185;47.844;8.966;2023-07-29T03:45:35;95798.63;;;15.04;100.00
58385;BME280;44185;47.844;8.966;2023-07-29T03:48:01;95785.44;;;15.11;100.00
58385;BME280;44185;47.844;8.966;2023-07-29T03:50:28;95791.09;;;15.08;100.00
58385;BME280;44185;47.844;8.966;2023-07-29T03:52:54;95794.16;;;14.96;100.00
58385;BME280;44185;47.844;8.966;2023-07-29T03:55:19;95790.13;;;15.00;100.00
58385;BME280;44185;47.844;8.966;2023-07-29T03:57:46;95797.47;;;14.98;100.00
58385;BME280;44185;47.844;8.966;2023-07-29T04:00:12;95790.97;;;15.01;100.00
58385;BME280;44185;47.844;8.966;2023-07-29T04:02:37;95783.97;;;15.00;100.00
58385;BME280;44185;47.844;8.966;2023-07-29T04:05:03;95774.69;;;14.96;100.00
58385;BME280;44185;47.844;8.966;2023-07-29T04:07:29;95777.53;;;14.94;100.00
58385;BME280;44185;47.844;8.966;2023-07-29T04:09:55;95785.66;;;15.01;100.00
58385;BME280;44185;47.844;8.966;2023-07-29T04:12:21;95777.00;;;14.99;100.00
58385;BME280;44185;47.844;8.966;2023-07-29T04:14:47;95789.31;;;14.92;100.00
58385;BME280;44185;47.844;8.966;2023-07-29T04:17:13;95793.50;;;14.86;100.00
58385;BME280;44185;47.844;8.966;2023-07-29T04:19:38;95798.34;;;14.90;100.00
58385;BME280;44185;47.844;8.966;2023-07-29T04:22:04;95798.50;;;14.89;100.00
58385;BME280;44185;47.844;8.966;2023-07-29T04:24:29;95798.00;;;14.94;100.00
58385;BME280;44185;47.844;8.966;2023-07-29T04:26:55;95793.81;;;14.99;100.00
58385;BME280;44185;47.844;8.966;2023-07-29T04:29:20;95803.97;;;15.04;100.00
58385;BME280;44185;47.844;8.966;2023-07-29T04:31:47;95813.59;;;15.05;100.00
58385;BME280;44185;47.844;8.966;2023-07-29T04:34:13;95819.94;;;15.04;100.00
58385;BME280;44185;47.844;8.966;2023-07-29T04:36:38;95820.09;;;15.03;100.00
58385;BME280;44185;47.844;8.966;2023-07-29T04:39:04;95814.44;;;15.06;100.00
58385;BME280;44185;47.844;8.966;2023-07-29T04:41:29;95821.78;;;15.04;100.00
58385;BME280;44185;47.844;8.966;2023-07-29T04:43:55;95825.28;;;15.04;100.00
58385;BME280;44185;47.844;8.966;2023-07-29T04:46:20;95824.63;;;15.02;100.00
58385;BME280;44185;47.844;8.966;2023-07-29T04:48:47;95832.94;;;15.07;100.00
58385;BME280;44185;47.844;8.966;2023-07-29T04:51:13;95840.72;;;15.17;100.00
58385;BME280;44185;47.844;8.966;2023-07-29T04:53:38;95832.03;;;15.23;100.00
58385;BME280;44185;47.844;8.966;2023-07-29T04:56:04;95814.50;;;15.38;100.00
58385;BME280;44185;47.844;8.966;2023-07-29T04:58:29;95805.63;;;15.45;100.00
58385;BME280;44185;47.844;8.966;2023-07-29T05:00:55;95803.47;;;15.41;100.00
58385;BME280;44185;47.844;8.966;2023-07-29T05:03:20;95800.94;;;15.48;100.00
58385;BME280;44185;47.844;8.966;2023-07-29T05:05:47;95798.72;;;15.60;100.00
58385;BME280;44185;47.844;8.966;2023-07-29T05:08:13;95797.06;;;15.59;100.00
58385;BME280;44185;47.844;8.966;2023-07-29T05:10:38;95804.19;;;15.66;100.00
58385;BME280;44185;47.844;8.966;2023-07-29T05:13:04;95811.97;;;15.76;100.00
58385;BME280;44185;47.844;8.966;2023-07-29T05:15:29;95814.13;;;15.81;100.00
58385;BME280;44185;47.844;8.966;2023-07-29T05:17:55;95808.88;;;15.88;100.00
58385;BME280;44185;47.844;8.966;2023-07-29T05:20:20;95809.91;;;15.87;100.00
58385;BME280;44185;47.844;8.966;2023-07-29T05:22:47;95813.53;;;15.94;100.00
58385;BME280;44185;47.844;8.966;2023-07-29T05:25:13;95821.00;;;15.99;100.00
58385;BME280;44185;47.844;8.966;2023-07-29T05:27:38;95837.31;;;16.04;100.00
58385;BME280;44185;47.844;8.966;2023-07-29T05:30:05;95833.47;;;16.07;100.00
58385;BME280;44185;47.844;8.966;2023-07-29T05:32:31;95841.34;;;16.08;100.00
58385;BME280;44185;47.844;8.966;2023-07-29T05:34:56;95836.28;;;16.14;100.00
58385;BME280;44185;47.844;8.966;2023-07-29T05:37:22;95833.09;;;16.18;100.00
58385;BME280;44185;47.844;8.966;2023-07-29T05:39:49;95839.84;;;16.29;100.00
58385;BME280;44185;47.844;8.966;2023-07-29T05:42:14;95839.47;;;16.56;100.00
58385;BME280;44185;47.844;8.966;2023-07-29T05:44:39;95838.44;;;16.57;100.00
58385;BME280;44185;47.844;8.966;2023-07-29T05:47:05;95848.13;;;16.58;100.00
58385;BME280;44185;47.844;8.966;2023-07-29T05:49:30;95839.47;;;16.56;100.00
58385;BME280;44185;47.844;8.966;2023-07-29T05:51:56;95832.09;;;16.58;100.00
58385;BME280;44185;47.844;8.966;2023-07-29T05:54:21;95839.22;;;16.66;100.00
58385;BME280;44185;47.844;8.966;2023-07-29T05:56:48;95839.72;;;17.15;100.00
58385;BME280;44185;47.844;8.966;2023-07-29T05:59:14;95847.47;;;17.55;100.00
58385;BME280;44185;47.844;8.966;2023-07-29T06:01:39;95853.19;;;17.67;100.00
58385;BME280;44185;47.844;8.966;2023-07-29T06:04:05;95849.75;;;17.74;100.00
58385;BME280;44185;47.844;8.966;2023-07-29T06:06:30;95837.53;;;18.23;100.00
58385;BME280;44185;47.844;8.966;2023-07-29T06:08:56;95837.16;;;18.27;100.00
58385;BME280;44185;47.844;8.966;2023-07-29T06:11:21;95851.56;;;18.48;100.00
58385;BME280;44185;47.844;8.966;2023-07-29T06:13:48;95844.41;;;18.11;100.00
58385;BME280;44185;47.844;8.966;2023-07-29T06:16:13;95850.63;;;17.96;100.00
58385;BME280;44185;47.844;8.966;2023-07-29T06:18:39;95846.50;;;17.94;100.00
58385;BME280;44185;47.844;8.966;2023-07-29T06:21:04;95845.78;;;17.85;100.00
58385;BME280;44185;47.844;8.966;2023-07-29T06:23:30;95845.78;;;17.85;100.00
58385;BME280;44185;47.844;8.966;2023-07-29T06:25:55;95838.22;;;18.10;100.00
58385;BME280;44185;47.844;8.966;2023-07-29T06:28:20;95845.31;;;18.40;100.00
58385;BME280;44185;47.844;8.966;2023-07-29T06:30:47;95843.72;;;18.68;100.00
58385;BME280;44185;47.844;8.966;2023-07-29T06:33:13;95849.03;;;18.90;100.00
58385;BME280;44185;47.844;8.966;2023-07-29T06:35:38;95850.78;;;19.05;100.00
58385;BME280;44185;47.844;8.966;2023-07-29T06:38:04;95852.84;;;19.31;100.00
58385;BME280;44185;47.844;8.966;2023-07-29T06:40:29;95860.13;;;19.44;100.00
58385;BME280;44185;47.844;8.966;2023-07-29T06:42:55;95860.06;;;19.73;100.00
58385;BME280;44185;47.844;8.966;2023-07-29T06:45:20;95869.16;;;19.79;100.00
58385;BME280;44185;47.844;8.966;2023-07-29T06:47:47;95864.56;;;20.15;100.00
58385;BME280;44185;47.844;8.966;2023-07-29T06:50:13;95866.25;;;20.37;100.00
58385;BME280;44185;47.844;8.966;2023-07-29T06:52:38;95867.09;;;20.58;100.00
58385;BME280;44185;47.844;8.966;2023-07-29T06:55:04;95870.84;;;20.56;100.00
58385;BME280;44185;47.844;8.966;2023-07-29T06:57:29;95854.28;;;20.53;100.00
58385;BME280;44185;47.844;8.966;2023-07-29T06:59:55;95853.84;;;20.29;100.00
58385;BME280;44185;47.844;8.966;2023-07-29T07:02:20;95850.25;;;20.08;100.00
58385;BME280;44185;47.844;8.966;2023-07-29T07:04:47;95840.88;;;19.83;100.00
58385;BME280;44185;47.844;8.966;2023-07-29T07:07:13;95840.19;;;19.67;100.00
58385;BME280;44185;47.844;8.966;2023-07-29T07:09:38;95838.28;;;19.54;100.00
58385;BME280;44185;47.844;8.966;2023-07-29T07:12:04;95842.03;;;19.60;100.00
58385;BME280;44185;47.844;8.966;2023-07-29T07:14:30;95851.75;;;19.61;100.00
58385;BME280;44185;47.844;8.966;2023-07-29T07:16:55;95845.63;;;19.74;100.00
58385;BME280;44185;47.844;8.966;2023-07-29T07:19:21;95844.72;;;19.25;100.00
58385;BME280;44185;47.844;8.966;2023-07-29T07:21:47;95839.25;;;19.40;100.00
58385;BME280;44185;47.844;8.966;2023-07-29T07:24:13;95835.16;;;20.00;100.00
58385;BME280;44185;47.844;8.966;2023-07-29T07:26:38;95824.41;;;20.00;100.00
58385;BME280;44185;47.844;8.966;2023-07-29T07:29:05;95833.81;;;20.45;100.00
58385;BME280;44185;47.844;8.966;2023-07-29T07:31:33;95835.91;;;20.56;100.00
58385;BME280;44185;47.844;8.966;2023-07-29T07:33:59;95828.66;;;20.64;100.00
58385;BME280;44185;47.844;8.966;2023-07-29T07:36:24;95832.56;;;20.34;100.00
58385;BME280;44185;47.844;8.966;2023-07-29T07:38:51;95835.47;;;20.73;100.00
58385;BME280;44185;47.844;8.966;2023-07-29T07:41:16;95828.44;;;20.93;100.00
58385;BME280;44185;47.844;8.966;2023-07-29T07:43:42;95828.44;;;20.79;100.00
58385;BME280;44185;47.844;8.966;2023-07-29T07:46:08;95827.19;;;20.34;100.00
58385;BME280;44185;47.844;8.966;2023-07-29T07:48:34;95834.66;;;20.45;100.00
58385;BME280;44185;47.844;8.966;2023-07-29T07:50:59;95822.88;;;20.53;100.00
58385;BME280;44185;47.844;8.966;2023-07-29T07:53:25;95829.28;;;20.73;100.00
58385;BME280;44185;47.844;8.966;2023-07-29T07:55:51;95833.22;;;20.70;100.00
58385;BME280;44185;47.844;8.966;2023-07-29T07:58:17;95832.97;;;21.19;100.00
58385;BME280;44185;47.844;8.966;2023-07-29T08:00:43;95830.50;;;21.11;100.00
58385;BME280;44185;47.844;8.966;2023-07-29T08:03:08;95839.75;;;21.29;100.00
58385;BME280;44185;47.844;8.966;2023-07-29T08:05:34;95842.28;;;21.17;100.00
58385;BME280;44185;47.844;8.966;2023-07-29T08:07:59;95836.72;;;20.91;100.00
58385;BME280;44185;47.844;8.966;2023-07-29T08:10:25;95846.16;;;21.41;100.00
58385;BME280;44185;47.844;8.966;2023-07-29T08:12:51;95845.63;;;21.72;100.00
58385;BME280;44185;47.844;8.966;2023-07-29T08:15:17;95842.00;;;22.05;100.00
58385;BME280;44185;47.844;8.966;2023-07-29T08:17:43;95837.00;;;21.63;100.00
58385;BME280;44185;47.844;8.966;2023-07-29T08:20:09;95840.78;;;22.01;100.00
58385;BME280;44185;47.844;8.966;2023-07-29T08:22:34;95848.22;;;22.38;100.00
58385;BME280;44185;47.844;8.966;2023-07-29T08:25:00;95841.25;;;22.56;100.00
58385;BME280;44185;47.844;8.966;2023-07-29T08:27:25;95845.38;;;22.59;100.00
58385;BME280;44185;47.844;8.966;2023-07-29T08:29:53;95836.09;;;22.22;100.00
58385;BME280;44185;47.844;8.966;2023-07-29T08:32:19;95831.34;;;22.24;100.00
58385;BME280;44185;47.844;8.966;2023-07-29T08:34:44;95826.72;;;22.31;100.00
58385;BME280;44185;47.844;8.966;2023-07-29T08:37:10;95834.09;;;22.43;100.00
58385;BME280;44185;47.844;8.966;2023-07-29T08:39:35;95829.84;;;22.28;100.00
58385;BME280;44185;47.844;8.966;2023-07-29T08:42:03;95831.50;;;22.29;100.00
58385;BME280;44185;47.844;8.966;2023-07-29T08:44:32;95837.22;;;22.07;100.00
58385;BME280;44185;47.844;8.966;2023-07-29T08:47:01;95843.16;;;22.23;100.00
58385;BME280;44185;47.844;8.966;2023-07-29T08:49:27;95841.31;;;22.17;100.00
58385;BME280;44185;47.844;8.966;2023-07-29T08:51:53;95853.34;;;22.47;100.00
58385;BME280;44185;47.844;8.966;2023-07-29T08:54:20;95847.13;;;22.46;100.00
58385;BME280;44185;47.844;8.966;2023-07-29T08:56:46;95842.13;;;22.17;100.00
58385;BME280;44185;47.844;8.966;2023-07-29T08:59:12;95832.84;;;22.13;100.00
58385;BME280;44185;47.844;8.966;2023-07-29T09:01:38;95836.63;;;22.05;100.00
58385;BME280;44185;47.844;8.966;2023-07-29T09:04:05;95835.81;;;22.37;100.00
58385;BME280;44185;47.844;8.966;2023-07-29T09:06:31;95836.00;;;22.03;100.00
58385;BME280;44185;47.844;8.966;2023-07-29T09:08:58;95834.22;;;22.22;100.00
58385;BME280;44185;47.844;8.966;2023-07-29T09:11:24;95834.41;;;22.28;100.00
58385;BME280;44185;47.844;8.966;2023-07-29T09:13:50;95837.06;;;22.35;100.00
58385;BME280;44185;47.844;8.966;2023-07-29T09:16:15;95826.28;;;22.02;100.00
58385;BME280;44185;47.844;8.966;2023-07-29T09:18:41;95822.63;;;22.22;100.00
58385;BME280;44185;47.844;8.966;2023-07-29T09:21:08;95821.34;;;22.31;99.49
58385;BME280;44185;47.844;8.966;2023-07-29T09:23:39;95822.34;;;22.37;100.00
58385;BME280;44185;47.844;8.966;2023-07-29T09:26:05;95823.94;;;22.45;100.00
58385;BME280;44185;47.844;8.966;2023-07-29T09:28:33;95831.09;;;22.58;99.46
58385;BME280;44185;47.844;8.966;2023-07-29T09:30:59;95824.00;;;22.89;100.00
58385;BME280;44185;47.844;8.966;2023-07-29T09:33:25;95817.34;;;22.92;96.43
58385;BME280;44185;47.844;8.966;2023-07-29T09:35:51;95822.81;;;23.04;98.89
58385;BME280;44185;47.844;8.966;2023-07-29T09:38:18;95817.31;;;23.18;96.72
58385;BME280;44185;47.844;8.966;2023-07-29T09:40:43;95819.81;;;23.38;91.78
58385;BME280;44185;47.844;8.966;2023-07-29T09:43:09;95819.81;;;22.94;91.21
58385;BME280;44185;47.844;8.966;2023-07-29T09:45:35;95814.25;;;23.14;96.99
58385;BME280;44185;47.844;8.966;2023-07-29T09:48:01;95812.81;;;23.49;93.38
58385;BME280;44185;47.844;8.966;2023-07-29T09:50:27;95807.22;;;23.70;92.25
58385;BME280;44185;47.844;8.966;2023-07-29T09:52:54;95813.75;;;23.62;87.87
58385;BME280;44185;47.844;8.966;2023-07-29T09:55:22;95807.63;;;23.85;87.04
58385;BME280;44185;47.844;8.966;2023-07-29T09:57:48;95805.09;;;23.72;86.35
58385;BME280;44185;47.844;8.966;2023-07-29T10:00:17;95805.94;;;23.72;84.54
58385;BME280;44185;47.844;8.966;2023-07-29T10:02:43;95794.97;;;23.86;86.11
58385;BME280;44185;47.844;8.966;2023-07-29T10:05:09;95800.91;;;24.07;88.13
58385;BME280;44185;47.844;8.966;2023-07-29T10:07:36;95800.91;;;24.07;82.21
58385;BME280;44185;47.844;8.966;2023-07-29T10:10:02;95797.97;;;24.08;83.69
58385;BME280;44185;47.844;8.966;2023-07-29T10:12:30;95796.41;;;24.31;85.26
58385;BME280;44185;47.844;8.966;2023-07-29T10:14:59;95798.88;;;24.33;83.63
58385;BME280;44185;47.844;8.966;2023-07-29T10:17:26;95790.69;;;24.52;79.14
58385;BME280;44185;47.844;8.966;2023-07-29T10:19:51;95793.22;;;24.35;79.93
58385;BME280;44185;47.844;8.966;2023-07-29T10:22:20;95791.47;;;24.28;82.76
58385;BME280;44185;47.844;8.966;2023-07-29T10:24:47;95800.06;;;24.37;82.42
58385;BME280;44185;47.844;8.966;2023-07-29T10:27:17;95802.81;;;24.61;83.27
58385;BME280;44185;47.844;8.966;2023-07-29T10:29:45;95803.38;;;24.51;84.73
58385;BME280;44185;47.844;8.966;2023-07-29T10:32:11;95797.28;;;24.56;80.71
58385;BME280;44185;47.844;8.966;2023-07-29T10:34:37;95797.75;;;24.77;80.86
58385;BME280;44185;47.844;8.966;2023-07-29T10:37:04;95796.44;;;24.55;78.61
58385;BME280;44185;47.844;8.966;2023-07-29T10:39:37;95789.88;;;24.63;79.32
58385;BME280;44185;47.844;8.966;2023-07-29T10:42:06;95788.66;;;24.47;74.03
58385;BME280;44185;47.844;8.966;2023-07-29T10:44:52;95792.00;;;24.85;80.79
58385;BME280;44185;47.844;8.966;2023-07-29T10:47:20;95790.09;;;24.98;74.67
58385;BME280;44185;47.844;8.966;2023-07-29T10:49:46;95793.06;;;24.60;74.42
58385;BME280;44185;47.844;8.966;2023-07-29T10:52:13;95787.88;;;24.47;72.74
58385;BME280;44185;47.844;8.966;2023-07-29T10:54:42;95786.78;;;24.48;71.28
58385;BME280;44185;47.844;8.966;2023-07-29T10:57:07;95776.81;;;24.36;68.97
58385;BME280;44185;47.844;8.966;2023-07-29T10:59:37;95779.44;;;24.24;70.74
58385;BME280;44185;47.844;8.966;2023-07-29T11:02:12;95769.84;;;24.40;69.59
58385;BME280;44185;47.844;8.966;2023-07-29T11:04:46;95773.59;;;24.27;70.31
58385;BME280;44185;47.844;8.966;2023-07-29T11:07:22;95768.56;;;24.43;67.79
58385;BME280;44185;47.844;8.966;2023-07-29T11:09:52;95766.69;;;24.55;65.62
58385;BME280;44185;47.844;8.966;2023-07-29T11:12:44;95759.19;;;24.70;62.31
58385;BME280;44185;47.844;8.966;2023-07-29T11:15:15;95765.06;;;24.79;63.54
58385;BME280;44185;47.844;8.966;2023-07-29T11:17:44;95772.13;;;24.68;60.58
58385;BME280;44185;47.844;8.966;2023-07-29T11:20:11;95764.94;;;24.49;58.68
58385;BME280;44185;47.844;8.966;2023-07-29T11:22:37;95762.00;;;24.51;60.05
58385;BME280;44185;47.844;8.966;2023-07-29T11:25:03;95767.88;;;24.48;58.09
58385;BME280;44185;47.844;8.966;2023-07-29T11:27:29;95765.16;;;24.36;57.86
58385;BME280;44185;47.844;8.966;2023-07-29T11:29:56;95767.97;;;24.41;61.35
58385;BME280;44185;47.844;8.966;2023-07-29T11:32:22;95759.41;;;24.44;56.74
58385;BME280;44185;47.844;8.966;2023-07-29T11:34:49;95761.53;;;24.54;58.53
58385;BME280;44185;47.844;8.966;2023-07-29T11:37:14;95754.09;;;24.37;57.74
58385;BME280;44185;47.844;8.966;2023-07-29T11:39:40;95755.84;;;24.31;59.31
58385;BME280;44185;47.844;8.966;2023-07-29T11:42:06;95739.59;;;24.19;58.56
58385;BME280;44185;47.844;8.966;2023-07-29T11:44:31;95738.16;;;24.17;59.19
58385;BME280;44185;47.844;8.966;2023-07-29T11:46:57;95747.66;;;24.07;60.05
58385;BME280;44185;47.844;8.966;2023-07-29T11:49:22;95744.16;;;24.07;60.91
58385;BME280;44185;47.844;8.966;2023-07-29T11:51:49;95736.75;;;24.14;59.42
58385;BME280;44185;47.844;8.966;2023-07-29T11:54:15;95732.00;;;24.40;61.36
58385;BME280;44185;47.844;8.966;2023-07-29T11:56:40;95726.63;;;24.52;60.24
58385;BME280;44185;47.844;8.966;2023-07-29T11:59:06;95738.97;;;24.60;60.37
58385;BME280;44185;47.844;8.966;2023-07-29T12:01:32;95734.97;;;24.63;60.63
58385;BME280;44185;47.844;8.966;2023-07-29T12:03:58;95725.44;;;24.72;62.04
58385;BME280;44185;47.844;8.966;2023-07-29T12:06:24;95721.19;;;24.88;61.23
58385;BME280;44185;47.844;8.966;2023-07-29T12:08:52;95720.81;;;24.85;58.79
58385;BME280;44185;47.844;8.966;2023-07-29T12:11:18;95714.13;;;24.99;59.80
58385;BME280;44185;47.844;8.966;2023-07-29T12:13:43;95715.88;;;24.94;59.47
58385;BME280;44185;47.844;8.966;2023-07-29T12:16:09;95723.78;;;24.83;60.70
58385;BME280;44185;47.844;8.966;2023-07-29T12:18:35;95736.50;;;24.71;61.99
58385;BME280;44185;47.844;8.966;2023-07-29T12:21:01;95741.19;;;24.63;60.66
58385;BME280;44185;47.844;8.966;2023-07-29T12:23:28;95741.41;;;24.74;63.51
58385;BME280;44185;47.844;8.966;2023-07-29T12:25:57;95746.34;;;24.77;63.68
58385;BME280;44185;47.844;8.966;2023-07-29T12:28:23;95750.34;;;24.50;62.62
58385;BME280;44185;47.844;8.966;2023-07-29T12:30:53;95765.03;;;24.42;63.01
58385;BME280;44185;47.844;8.966;2023-07-29T12:33:29;95766.91;;;24.42;64.14
58385;BME280;44185;47.844;8.966;2023-07-29T12:35:55;95765.09;;;24.24;64.32
58385;BME280;44185;47.844;8.966;2023-07-29T12:38:21;95778.38;;;24.25;65.06
58385;BME280;44185;47.844;8.966;2023-07-29T12:40:46;95770.16;;;23.89;73.63
58385;BME280;44185;47.844;8.966;2023-07-29T12:43:13;95773.09;;;23.57;76.81
58385;BME280;44185;47.844;8.966;2023-07-29T12:45:38;95770.09;;;23.46;79.79
58385;BME280;44185;47.844;8.966;2023-07-29T12:48:04;95771.66;;;23.16;81.30